WZZ8872 LHBP-LIEA
Flight info
| Callsign | WZZ8872 |
|---|---|
| Flight time | 1h 46m |
| Altitude | 38000 |
| Route | DUZLA DCT VEBAL DCT NIVES DCT IBENI DCT MAMAR DCT BATOX DCT ROMPO L5 MINKA |
| Aircraft | A321/M-SDE1E2E3FGIJ1J4RWXY/LB1 |
Departure
| Time | 2026-05-08 08:02 |
|---|---|
| Airport | Budapest Liszt Ferenc International Airport (LHBP) |
Arrival
| Time | 2026-05-08 09:48 |
|---|---|
| Airport | Alghero-Fertilia Airport (LIEA) |
| Time | Latitude | Longitude | Altitude | Speed | Heading |
|---|---|---|---|---|---|
| 2026-05-08 07:34 | 47.43322 | 19.26769 | 456 ft | 0 kts | 222° |
| 2026-05-08 07:56 | 47.43319 | 19.26764 | 458 ft | 3 kts | 222° |
| 2026-05-08 07:56 | 47.43278 | 19.26726 | 458 ft | 8 kts | 180° |
| 2026-05-08 07:56 | 47.43251 | 19.26798 | 458 ft | 9 kts | 90° |
| 2026-05-08 07:57 | 47.43277 | 19.26895 | 456 ft | 11 kts | 46° |
| 2026-05-08 07:57 | 47.43342 | 19.26869 | 458 ft | 12 kts | 313° |
| 2026-05-08 07:57 | 47.43402 | 19.26774 | 458 ft | 14 kts | 313° |
| 2026-05-08 07:57 | 47.43470 | 19.26664 | 456 ft | 15 kts | 312° |
| 2026-05-08 07:58 | 47.43546 | 19.26542 | 458 ft | 17 kts | 312° |
| 2026-05-08 07:58 | 47.43630 | 19.26406 | 458 ft | 19 kts | 312° |
| 2026-05-08 07:58 | 47.43679 | 19.26273 | 458 ft | 15 kts | 270° |
| 2026-05-08 07:58 | 47.43674 | 19.26112 | 457 ft | 15 kts | 269° |
| 2026-05-08 07:59 | 47.43725 | 19.25988 | 457 ft | 15 kts | 311° |
| 2026-05-08 07:59 | 47.43700 | 19.25865 | 457 ft | 15 kts | 222° |
| 2026-05-08 07:59 | 47.43616 | 19.25753 | 455 ft | 17 kts | 222° |
| 2026-05-08 07:59 | 47.43525 | 19.25631 | 457 ft | 19 kts | 222° |
| 2026-05-08 08:00 | 47.43425 | 19.25497 | 457 ft | 20 kts | 222° |
| 2026-05-08 08:00 | 47.43318 | 19.25352 | 457 ft | 21 kts | 222° |
| 2026-05-08 08:00 | 47.43204 | 19.25200 | 457 ft | 22 kts | 223° |
| 2026-05-08 08:00 | 47.43105 | 19.25066 | 457 ft | 15 kts | 223° |
| 2026-05-08 08:01 | 47.43102 | 19.24940 | 457 ft | 15 kts | 308° |
| 2026-05-08 08:01 | 47.43264 | 19.24675 | 455 ft | 70 kts | 312° |
| 2026-05-08 08:01 | 47.43768 | 19.23857 | 455 ft | 142 kts | 313° |
| 2026-05-08 08:01 | 47.44528 | 19.22645 | 834 ft | 164 kts | 312° |
| 2026-05-08 08:02 | 47.45294 | 19.21407 | 1713 ft | 163 kts | 311° |
| 2026-05-08 08:02 | 47.45795 | 19.20595 | 2247 ft | 161 kts | 311° |
| 2026-05-08 08:02 | 47.46548 | 19.19372 | 2910 ft | 161 kts | 312° |
| 2026-05-08 08:02 | 47.47300 | 19.18151 | 3563 ft | 161 kts | 312° |
| 2026-05-08 08:03 | 47.48076 | 19.16888 | 4038 ft | 175 kts | 311° |
| 2026-05-08 08:03 | 47.48781 | 19.15290 | 4403 ft | 197 kts | 295° |
| 2026-05-08 08:03 | 47.49201 | 19.13239 | 4715 ft | 222 kts | 278° |
| 2026-05-08 08:03 | 47.49153 | 19.10831 | 5050 ft | 249 kts | 258° |
| 2026-05-08 08:04 | 47.48474 | 19.08364 | 5564 ft | 270 kts | 237° |
| 2026-05-08 08:04 | 47.47165 | 19.06337 | 6390 ft | 278 kts | 216° |
| 2026-05-08 08:04 | 47.45397 | 19.05130 | 7240 ft | 284 kts | 198° |
| 2026-05-08 08:04 | 47.43560 | 19.04053 | 8127 ft | 286 kts | 213° |
| 2026-05-08 08:05 | 47.41987 | 19.02255 | 9012 ft | 287 kts | 221° |
| 2026-05-08 08:05 | 47.40452 | 19.00345 | 9922 ft | 290 kts | 222° |
| 2026-05-08 08:05 | 47.38887 | 18.98382 | 10492 ft | 305 kts | 222° |
| 2026-05-08 08:05 | 47.37216 | 18.96275 | 10772 ft | 327 kts | 222° |
| 2026-05-08 08:06 | 47.35453 | 18.94061 | 11367 ft | 336 kts | 222° |
| 2026-05-08 08:06 | 47.33658 | 18.91814 | 12152 ft | 340 kts | 222° |
| 2026-05-08 08:06 | 47.31846 | 18.89552 | 12968 ft | 343 kts | 222° |
| 2026-05-08 08:06 | 47.30019 | 18.87274 | 13787 ft | 345 kts | 222° |
| 2026-05-08 08:07 | 47.28177 | 18.84985 | 14519 ft | 348 kts | 222° |
| 2026-05-08 08:07 | 47.26320 | 18.82678 | 15255 ft | 351 kts | 223° |
| 2026-05-08 08:07 | 47.24447 | 18.80357 | 15992 ft | 353 kts | 223° |
| 2026-05-08 08:07 | 47.22559 | 18.78018 | 16745 ft | 356 kts | 223° |
| 2026-05-08 08:08 | 47.20656 | 18.75660 | 17489 ft | 359 kts | 223° |
| 2026-05-08 08:08 | 47.18739 | 18.73282 | 18226 ft | 362 kts | 223° |
| 2026-05-08 08:08 | 47.16805 | 18.70887 | 18884 ft | 365 kts | 223° |
| 2026-05-08 08:08 | 47.14881 | 18.68513 | 19531 ft | 367 kts | 223° |
| 2026-05-08 08:09 | 47.12917 | 18.66095 | 20205 ft | 370 kts | 223° |
| 2026-05-08 08:09 | 47.10940 | 18.63665 | 20878 ft | 372 kts | 223° |
| 2026-05-08 08:09 | 47.08954 | 18.61220 | 21556 ft | 374 kts | 223° |
| 2026-05-08 08:09 | 47.06960 | 18.58765 | 22251 ft | 376 kts | 223° |
| 2026-05-08 08:10 | 47.04953 | 18.56293 | 22923 ft | 378 kts | 224° |
| 2026-05-08 08:10 | 47.02933 | 18.53808 | 23570 ft | 380 kts | 224° |
| 2026-05-08 08:10 | 47.00899 | 18.51312 | 24106 ft | 382 kts | 224° |
| 2026-05-08 08:10 | 46.98855 | 18.48809 | 24648 ft | 384 kts | 224° |
| 2026-05-08 08:11 | 46.96804 | 18.46300 | 25173 ft | 385 kts | 224° |
| 2026-05-08 08:11 | 46.94746 | 18.43786 | 25727 ft | 386 kts | 224° |
| 2026-05-08 08:11 | 46.92682 | 18.41267 | 26241 ft | 387 kts | 224° |
| 2026-05-08 08:11 | 46.90620 | 18.38751 | 26791 ft | 387 kts | 224° |
| 2026-05-08 08:12 | 46.88550 | 18.36225 | 27314 ft | 388 kts | 224° |
| 2026-05-08 08:12 | 46.86474 | 18.33692 | 27824 ft | 389 kts | 224° |
| 2026-05-08 08:12 | 46.84390 | 18.31153 | 28336 ft | 391 kts | 224° |
| 2026-05-08 08:12 | 46.82297 | 18.28609 | 28831 ft | 392 kts | 224° |
| 2026-05-08 08:13 | 46.80195 | 18.26059 | 29311 ft | 394 kts | 224° |
| 2026-05-08 08:13 | 46.78084 | 18.23500 | 29781 ft | 395 kts | 224° |
| 2026-05-08 08:13 | 46.75964 | 18.20933 | 30220 ft | 397 kts | 224° |
| 2026-05-08 08:13 | 46.73833 | 18.18358 | 30557 ft | 399 kts | 224° |
| 2026-05-08 08:14 | 46.71686 | 18.15769 | 30907 ft | 402 kts | 224° |
| 2026-05-08 08:14 | 46.69527 | 18.13161 | 31249 ft | 404 kts | 225° |
| 2026-05-08 08:14 | 46.67355 | 18.10535 | 31605 ft | 407 kts | 225° |
| 2026-05-08 08:14 | 46.65176 | 18.07907 | 32081 ft | 406 kts | 225° |
| 2026-05-08 08:15 | 46.63000 | 18.05292 | 32585 ft | 405 kts | 225° |
| 2026-05-08 08:15 | 46.60834 | 18.02692 | 33087 ft | 404 kts | 225° |
| 2026-05-08 08:15 | 46.58669 | 18.00094 | 33564 ft | 403 kts | 225° |
| 2026-05-08 08:15 | 46.56508 | 17.97505 | 34035 ft | 402 kts | 225° |
| 2026-05-08 08:16 | 46.54351 | 17.94922 | 34441 ft | 402 kts | 225° |
| 2026-05-08 08:16 | 46.52197 | 17.92339 | 34808 ft | 402 kts | 224° |
| 2026-05-08 08:16 | 46.50043 | 17.89755 | 35159 ft | 402 kts | 224° |
| 2026-05-08 08:16 | 46.47883 | 17.87175 | 35505 ft | 402 kts | 224° |
| 2026-05-08 08:17 | 46.45717 | 17.84599 | 35852 ft | 403 kts | 224° |
| 2026-05-08 08:17 | 46.43549 | 17.82023 | 36195 ft | 403 kts | 223° |
| 2026-05-08 08:17 | 46.41382 | 17.79441 | 36534 ft | 403 kts | 223° |
| 2026-05-08 08:17 | 46.39215 | 17.76856 | 36812 ft | 404 kts | 223° |
| 2026-05-08 08:18 | 46.37040 | 17.74266 | 37080 ft | 405 kts | 223° |
| 2026-05-08 08:18 | 46.34860 | 17.71676 | 37370 ft | 406 kts | 223° |
| 2026-05-08 08:18 | 46.32676 | 17.69086 | 37668 ft | 406 kts | 223° |
| 2026-05-08 08:18 | 46.30494 | 17.66504 | 37940 ft | 406 kts | 222° |
| 2026-05-08 08:19 | 46.28301 | 17.63912 | 38074 ft | 407 kts | 222° |
| 2026-05-08 08:19 | 46.23944 | 17.58764 | 38098 ft | 407 kts | 222° |
| 2026-05-08 08:20 | 46.19554 | 17.53593 | 38098 ft | 408 kts | 222° |
| 2026-05-08 08:20 | 46.15159 | 17.48415 | 38100 ft | 408 kts | 222° |
| 2026-05-08 08:21 | 46.10761 | 17.43247 | 38101 ft | 408 kts | 222° |
| 2026-05-08 08:21 | 46.06354 | 17.38092 | 38105 ft | 408 kts | 222° |
| 2026-05-08 08:22 | 46.01946 | 17.32946 | 38102 ft | 408 kts | 222° |
| 2026-05-08 08:22 | 45.97869 | 17.27338 | 38106 ft | 404 kts | 234° |
| 2026-05-08 08:23 | 45.94433 | 17.20939 | 38128 ft | 404 kts | 234° |
| 2026-05-08 08:23 | 45.90980 | 17.14557 | 38126 ft | 405 kts | 234° |
| 2026-05-08 08:24 | 45.87519 | 17.08181 | 38110 ft | 405 kts | 233° |
| 2026-05-08 08:24 | 45.84050 | 17.01811 | 38120 ft | 405 kts | 233° |
| 2026-05-08 08:25 | 45.80575 | 16.95449 | 38127 ft | 405 kts | 233° |
| 2026-05-08 08:25 | 45.77101 | 16.89100 | 38132 ft | 405 kts | 233° |
| 2026-05-08 08:26 | 45.73627 | 16.82743 | 38133 ft | 405 kts | 233° |
| 2026-05-08 08:26 | 45.70173 | 16.76435 | 38129 ft | 405 kts | 233° |
| 2026-05-08 08:27 | 45.66686 | 16.70103 | 38125 ft | 405 kts | 233° |
| 2026-05-08 08:27 | 45.63194 | 16.63773 | 38124 ft | 405 kts | 233° |
| 2026-05-08 08:28 | 45.59708 | 16.57456 | 38133 ft | 405 kts | 233° |
| 2026-05-08 08:28 | 45.56215 | 16.51139 | 38135 ft | 405 kts | 232° |
| 2026-05-08 08:29 | 45.52716 | 16.44835 | 38132 ft | 405 kts | 232° |
| 2026-05-08 08:29 | 45.49218 | 16.38540 | 38130 ft | 405 kts | 232° |
| 2026-05-08 08:30 | 45.45716 | 16.32258 | 38132 ft | 405 kts | 232° |
| 2026-05-08 08:30 | 45.40461 | 16.22858 | 38111 ft | 404 kts | 232° |
| 2026-05-08 08:31 | 45.36955 | 16.16609 | 38113 ft | 404 kts | 232° |
| 2026-05-08 08:31 | 45.33443 | 16.10365 | 38110 ft | 404 kts | 232° |
| 2026-05-08 08:32 | 45.29930 | 16.04131 | 38119 ft | 405 kts | 232° |
| 2026-05-08 08:32 | 45.26415 | 15.97887 | 38129 ft | 405 kts | 232° |
| 2026-05-08 08:33 | 45.22891 | 15.91651 | 38119 ft | 405 kts | 232° |
| 2026-05-08 08:33 | 45.19320 | 15.85460 | 38116 ft | 406 kts | 231° |
| 2026-05-08 08:34 | 45.15684 | 15.79338 | 38124 ft | 406 kts | 230° |
| 2026-05-08 08:34 | 45.12038 | 15.73228 | 38127 ft | 406 kts | 231° |
| 2026-05-08 08:35 | 45.08409 | 15.67104 | 38107 ft | 406 kts | 231° |
| 2026-05-08 08:35 | 45.04790 | 15.60985 | 38111 ft | 406 kts | 231° |
| 2026-05-08 08:36 | 45.01156 | 15.54873 | 38102 ft | 406 kts | 230° |
| 2026-05-08 08:36 | 44.97513 | 15.48772 | 38105 ft | 406 kts | 230° |
| 2026-05-08 08:37 | 44.93868 | 15.42679 | 38107 ft | 406 kts | 230° |
| 2026-05-08 08:37 | 44.90220 | 15.36585 | 38101 ft | 407 kts | 230° |
| 2026-05-08 08:38 | 44.86569 | 15.30499 | 38095 ft | 407 kts | 230° |
| 2026-05-08 08:38 | 44.82934 | 15.24451 | 38093 ft | 407 kts | 230° |
| 2026-05-08 08:39 | 44.79271 | 15.18367 | 38091 ft | 407 kts | 230° |
| 2026-05-08 08:39 | 44.75603 | 15.12283 | 38070 ft | 407 kts | 230° |
| 2026-05-08 08:40 | 44.71924 | 15.06208 | 38082 ft | 408 kts | 230° |
| 2026-05-08 08:40 | 44.68240 | 15.00130 | 38068 ft | 408 kts | 230° |
| 2026-05-08 08:41 | 44.64555 | 14.94061 | 38075 ft | 408 kts | 230° |
| 2026-05-08 08:41 | 44.60862 | 14.88004 | 38074 ft | 408 kts | 230° |
| 2026-05-08 08:42 | 44.57165 | 14.81962 | 38072 ft | 408 kts | 230° |
| 2026-05-08 08:42 | 44.53466 | 14.75913 | 38072 ft | 409 kts | 230° |
| 2026-05-08 08:43 | 44.49756 | 14.69864 | 38069 ft | 409 kts | 229° |
| 2026-05-08 08:43 | 44.46044 | 14.63824 | 38072 ft | 409 kts | 229° |
| 2026-05-08 08:44 | 44.42327 | 14.57787 | 38062 ft | 409 kts | 229° |
| 2026-05-08 08:44 | 44.38625 | 14.51797 | 38066 ft | 410 kts | 229° |
| 2026-05-08 08:45 | 44.34899 | 14.45767 | 38071 ft | 410 kts | 229° |
| 2026-05-08 08:45 | 44.31165 | 14.39744 | 38072 ft | 410 kts | 229° |
| 2026-05-08 08:46 | 44.27430 | 14.33731 | 38067 ft | 410 kts | 229° |
| 2026-05-08 08:46 | 44.23691 | 14.27719 | 38072 ft | 410 kts | 229° |
| 2026-05-08 08:47 | 44.19954 | 14.21712 | 38071 ft | 410 kts | 229° |
| 2026-05-08 08:47 | 44.16203 | 14.15714 | 38071 ft | 410 kts | 229° |
| 2026-05-08 08:48 | 44.12452 | 14.09721 | 38072 ft | 410 kts | 229° |
| 2026-05-08 08:48 | 44.08700 | 14.03736 | 38075 ft | 410 kts | 229° |
| 2026-05-08 08:49 | 44.04944 | 13.97773 | 38076 ft | 410 kts | 229° |
| 2026-05-08 08:49 | 44.01166 | 13.91814 | 38076 ft | 410 kts | 227° |
| 2026-05-08 08:50 | 43.97156 | 13.86176 | 38073 ft | 410 kts | 224° |
| 2026-05-08 08:50 | 43.93002 | 13.80750 | 38075 ft | 410 kts | 223° |
| 2026-05-08 08:51 | 43.89555 | 13.76241 | 38077 ft | 410 kts | 224° |
| 2026-05-08 08:51 | 43.85436 | 13.70769 | 38073 ft | 410 kts | 224° |
| 2026-05-08 08:52 | 43.81339 | 13.65280 | 38072 ft | 410 kts | 224° |
| 2026-05-08 08:52 | 43.77235 | 13.59808 | 38066 ft | 410 kts | 224° |
| 2026-05-08 08:53 | 43.73123 | 13.54350 | 38071 ft | 410 kts | 224° |
| 2026-05-08 08:53 | 43.69009 | 13.48901 | 38085 ft | 410 kts | 224° |
| 2026-05-08 08:54 | 43.64898 | 13.43450 | 38079 ft | 410 kts | 224° |
| 2026-05-08 08:54 | 43.60779 | 13.38012 | 38059 ft | 410 kts | 224° |
| 2026-05-08 08:55 | 43.56664 | 13.32594 | 37888 ft | 410 kts | 224° |
| 2026-05-08 08:55 | 43.54604 | 13.29884 | 37610 ft | 408 kts | 224° |
| 2026-05-08 08:55 | 43.52558 | 13.27191 | 37335 ft | 407 kts | 224° |
| 2026-05-08 08:56 | 43.50513 | 13.24498 | 37088 ft | 406 kts | 224° |
| 2026-05-08 08:56 | 43.48473 | 13.21813 | 37019 ft | 405 kts | 224° |
| 2026-05-08 08:56 | 43.44376 | 13.16444 | 37028 ft | 408 kts | 224° |
| 2026-05-08 08:57 | 43.40255 | 13.11060 | 37034 ft | 409 kts | 224° |
| 2026-05-08 08:57 | 43.36134 | 13.05682 | 37023 ft | 409 kts | 224° |
| 2026-05-08 08:58 | 43.32011 | 13.00307 | 37020 ft | 409 kts | 224° |
| 2026-05-08 08:58 | 43.27886 | 12.94939 | 37003 ft | 409 kts | 224° |
| 2026-05-08 08:59 | 43.23776 | 12.89615 | 36992 ft | 409 kts | 224° |
| 2026-05-08 08:59 | 43.19639 | 12.84259 | 36991 ft | 409 kts | 224° |
| 2026-05-08 09:00 | 43.15499 | 12.78900 | 36990 ft | 410 kts | 224° |
| 2026-05-08 09:00 | 43.11349 | 12.73549 | 36985 ft | 410 kts | 224° |
| 2026-05-08 09:01 | 43.07197 | 12.68206 | 36983 ft | 410 kts | 224° |
| 2026-05-08 09:01 | 43.03044 | 12.62863 | 36984 ft | 410 kts | 224° |
| 2026-05-08 09:02 | 42.98886 | 12.57525 | 36984 ft | 410 kts | 224° |
| 2026-05-08 09:02 | 42.94722 | 12.52187 | 36985 ft | 411 kts | 224° |
| 2026-05-08 09:03 | 42.90549 | 12.46861 | 36976 ft | 411 kts | 224° |
| 2026-05-08 09:03 | 42.86365 | 12.41536 | 36980 ft | 412 kts | 223° |
| 2026-05-08 09:04 | 42.82196 | 12.36239 | 36989 ft | 412 kts | 224° |
| 2026-05-08 09:04 | 42.78002 | 12.30904 | 36995 ft | 413 kts | 224° |
| 2026-05-08 09:05 | 42.73804 | 12.25580 | 36986 ft | 413 kts | 224° |
| 2026-05-08 09:05 | 42.69617 | 12.20291 | 36987 ft | 413 kts | 224° |
| 2026-05-08 09:06 | 42.65376 | 12.14941 | 36977 ft | 413 kts | 224° |
| 2026-05-08 09:06 | 42.61164 | 12.09627 | 36973 ft | 413 kts | 224° |
| 2026-05-08 09:07 | 42.56980 | 12.04357 | 36960 ft | 413 kts | 224° |
| 2026-05-08 09:07 | 42.52768 | 11.99072 | 36972 ft | 413 kts | 224° |
| 2026-05-08 09:08 | 42.48545 | 11.93781 | 36969 ft | 413 kts | 224° |
| 2026-05-08 09:08 | 42.44329 | 11.88510 | 36971 ft | 412 kts | 224° |
| 2026-05-08 09:09 | 42.40114 | 11.83248 | 36960 ft | 412 kts | 224° |
| 2026-05-08 09:09 | 42.35899 | 11.77990 | 36973 ft | 412 kts | 224° |
| 2026-05-08 09:10 | 42.31679 | 11.72742 | 36981 ft | 412 kts | 224° |
| 2026-05-08 09:10 | 42.27453 | 11.67499 | 37001 ft | 412 kts | 225° |
| 2026-05-08 09:11 | 42.23229 | 11.62265 | 36999 ft | 412 kts | 225° |
| 2026-05-08 09:11 | 42.19008 | 11.57046 | 36998 ft | 412 kts | 224° |
| 2026-05-08 09:12 | 42.14786 | 11.51839 | 36992 ft | 412 kts | 225° |
| 2026-05-08 09:12 | 42.10564 | 11.46630 | 36994 ft | 411 kts | 224° |
| 2026-05-08 09:13 | 42.06333 | 11.41431 | 36997 ft | 411 kts | 224° |
| 2026-05-08 09:13 | 42.02099 | 11.36248 | 36985 ft | 411 kts | 225° |
| 2026-05-08 09:14 | 41.97864 | 11.31068 | 36987 ft | 412 kts | 225° |
| 2026-05-08 09:14 | 41.93631 | 11.25885 | 37001 ft | 412 kts | 225° |
| 2026-05-08 09:15 | 41.89392 | 11.20710 | 37006 ft | 412 kts | 225° |
| 2026-05-08 09:15 | 41.85154 | 11.15546 | 36995 ft | 412 kts | 226° |
| 2026-05-08 09:16 | 41.80912 | 11.10385 | 36998 ft | 411 kts | 228° |
| 2026-05-08 09:16 | 41.77200 | 11.04622 | 37002 ft | 408 kts | 233° |
| 2026-05-08 09:17 | 41.73581 | 10.98762 | 37003 ft | 408 kts | 233° |
| 2026-05-08 09:17 | 41.69949 | 10.92910 | 37006 ft | 409 kts | 233° |
| 2026-05-08 09:18 | 41.66334 | 10.87109 | 36998 ft | 408 kts | 233° |
| 2026-05-08 09:18 | 41.62692 | 10.81289 | 37013 ft | 408 kts | 234° |
| 2026-05-08 09:19 | 41.59056 | 10.75474 | 37021 ft | 407 kts | 234° |
| 2026-05-08 09:19 | 41.55426 | 10.69665 | 37022 ft | 407 kts | 234° |
| 2026-05-08 09:20 | 41.51801 | 10.63871 | 37020 ft | 407 kts | 234° |
| 2026-05-08 09:20 | 41.48162 | 10.58076 | 37009 ft | 407 kts | 235° |
| 2026-05-08 09:21 | 41.44531 | 10.52314 | 37031 ft | 405 kts | 235° |
| 2026-05-08 09:23 | 41.31907 | 10.32340 | 37030 ft | 401 kts | 236° |
| 2026-05-08 09:23 | 41.28311 | 10.26678 | 37026 ft | 401 kts | 236° |
| 2026-05-08 09:24 | 41.24709 | 10.21032 | 37020 ft | 399 kts | 236° |
| 2026-05-08 09:24 | 41.22918 | 10.18225 | 36617 ft | 397 kts | 237° |
| 2026-05-08 09:24 | 41.21221 | 10.15362 | 36081 ft | 391 kts | 243° |
| 2026-05-08 09:24 | 41.19869 | 10.12270 | 35525 ft | 386 kts | 248° |
| 2026-05-08 09:25 | 41.18578 | 10.09144 | 34953 ft | 386 kts | 248° |
| 2026-05-08 09:25 | 41.17289 | 10.06033 | 34504 ft | 383 kts | 248° |
| 2026-05-08 09:25 | 41.16010 | 10.02957 | 34105 ft | 378 kts | 248° |
| 2026-05-08 09:25 | 41.14742 | 9.99917 | 33635 ft | 375 kts | 248° |
| 2026-05-08 09:26 | 41.13487 | 9.96903 | 33105 ft | 372 kts | 248° |
| 2026-05-08 09:26 | 41.12241 | 9.93907 | 32566 ft | 369 kts | 248° |
| 2026-05-08 09:26 | 41.11009 | 9.90950 | 32080 ft | 366 kts | 248° |
| 2026-05-08 09:26 | 41.09782 | 9.88010 | 31581 ft | 363 kts | 248° |
| 2026-05-08 09:27 | 41.08564 | 9.85088 | 31070 ft | 361 kts | 248° |
| 2026-05-08 09:27 | 41.07351 | 9.82181 | 30589 ft | 359 kts | 248° |
| 2026-05-08 09:27 | 41.06146 | 9.79296 | 30128 ft | 357 kts | 247° |
| 2026-05-08 09:27 | 41.04945 | 9.76429 | 29560 ft | 355 kts | 247° |
| 2026-05-08 09:28 | 41.03749 | 9.73574 | 29001 ft | 354 kts | 246° |
| 2026-05-08 09:28 | 41.02555 | 9.70731 | 28448 ft | 353 kts | 246° |
| 2026-05-08 09:28 | 41.01364 | 9.67896 | 27913 ft | 352 kts | 246° |
| 2026-05-08 09:28 | 41.00173 | 9.65068 | 27398 ft | 351 kts | 245° |
| 2026-05-08 09:29 | 40.98986 | 9.62243 | 26932 ft | 351 kts | 245° |
| 2026-05-08 09:29 | 40.97802 | 9.59423 | 26462 ft | 350 kts | 244° |
| 2026-05-08 09:29 | 40.96617 | 9.56611 | 25981 ft | 350 kts | 244° |
| 2026-05-08 09:29 | 40.95432 | 9.53805 | 25510 ft | 349 kts | 244° |
| 2026-05-08 09:30 | 40.94251 | 9.51015 | 25067 ft | 347 kts | 245° |
| 2026-05-08 09:30 | 40.93079 | 9.48246 | 24680 ft | 344 kts | 244° |
| 2026-05-08 09:30 | 40.91929 | 9.45531 | 24255 ft | 342 kts | 244° |
| 2026-05-08 09:30 | 40.90768 | 9.42789 | 23819 ft | 341 kts | 244° |
| 2026-05-08 09:31 | 40.89593 | 9.40018 | 23310 ft | 341 kts | 244° |
| 2026-05-08 09:31 | 40.88449 | 9.37329 | 22794 ft | 339 kts | 243° |
| 2026-05-08 09:31 | 40.87295 | 9.34618 | 22292 ft | 338 kts | 243° |
| 2026-05-08 09:31 | 40.86146 | 9.31918 | 21786 ft | 336 kts | 243° |
| 2026-05-08 09:32 | 40.85001 | 9.29233 | 21310 ft | 335 kts | 243° |
| 2026-05-08 09:32 | 40.83860 | 9.26562 | 20827 ft | 333 kts | 243° |
| 2026-05-08 09:32 | 40.82725 | 9.23900 | 20370 ft | 332 kts | 243° |
| 2026-05-08 09:32 | 40.81595 | 9.21252 | 19903 ft | 330 kts | 243° |
| 2026-05-08 09:33 | 40.80470 | 9.18614 | 19442 ft | 329 kts | 243° |
| 2026-05-08 09:33 | 40.79354 | 9.15991 | 18982 ft | 328 kts | 243° |
| 2026-05-08 09:33 | 40.78237 | 9.13374 | 18545 ft | 327 kts | 242° |
| 2026-05-08 09:33 | 40.77123 | 9.10765 | 18033 ft | 326 kts | 243° |
| 2026-05-08 09:34 | 40.76015 | 9.08175 | 17631 ft | 322 kts | 243° |
| 2026-05-08 09:34 | 40.74914 | 9.05614 | 17169 ft | 320 kts | 242° |
| 2026-05-08 09:34 | 40.73816 | 9.03066 | 16689 ft | 319 kts | 242° |
| 2026-05-08 09:34 | 40.72720 | 9.00525 | 16206 ft | 318 kts | 242° |
| 2026-05-08 09:35 | 40.71628 | 8.97987 | 15733 ft | 318 kts | 242° |
| 2026-05-08 09:35 | 40.70535 | 8.95446 | 15267 ft | 318 kts | 242° |
| 2026-05-08 09:35 | 40.69445 | 8.92915 | 14812 ft | 318 kts | 242° |
| 2026-05-08 09:35 | 40.68357 | 8.90385 | 14360 ft | 317 kts | 242° |
| 2026-05-08 09:36 | 40.67269 | 8.87857 | 13925 ft | 317 kts | 242° |
| 2026-05-08 09:36 | 40.66181 | 8.85332 | 13463 ft | 317 kts | 241° |
| 2026-05-08 09:36 | 40.65094 | 8.82815 | 13008 ft | 316 kts | 241° |
| 2026-05-08 09:36 | 40.64011 | 8.80313 | 12579 ft | 314 kts | 242° |
| 2026-05-08 09:37 | 40.62934 | 8.77831 | 12233 ft | 309 kts | 241° |
| 2026-05-08 09:37 | 40.61884 | 8.75410 | 12015 ft | 301 kts | 241° |
| 2026-05-08 09:37 | 40.61201 | 8.73833 | 11785 ft | 299 kts | 240° |
| 2026-05-08 09:37 | 40.60171 | 8.71458 | 11401 ft | 298 kts | 240° |
| 2026-05-08 09:38 | 40.59140 | 8.69080 | 10956 ft | 300 kts | 240° |
| 2026-05-08 09:38 | 40.58106 | 8.66703 | 10600 ft | 298 kts | 240° |
| 2026-05-08 09:38 | 40.57076 | 8.64337 | 10268 ft | 297 kts | 240° |
| 2026-05-08 09:38 | 40.56054 | 8.61989 | 9927 ft | 296 kts | 240° |
| 2026-05-08 09:39 | 40.55033 | 8.59645 | 9540 ft | 295 kts | 240° |
| 2026-05-08 09:39 | 40.54016 | 8.57312 | 9157 ft | 293 kts | 240° |
| 2026-05-08 09:39 | 40.53005 | 8.54992 | 8837 ft | 289 kts | 239° |
| 2026-05-08 09:39 | 40.52020 | 8.52741 | 8714 ft | 279 kts | 239° |
| 2026-05-08 09:40 | 40.51069 | 8.50570 | 8573 ft | 270 kts | 239° |
| 2026-05-08 09:40 | 40.50145 | 8.48455 | 8356 ft | 265 kts | 239° |
| 2026-05-08 09:40 | 40.49232 | 8.46367 | 8096 ft | 262 kts | 239° |
| 2026-05-08 09:40 | 40.48336 | 8.44320 | 7835 ft | 254 kts | 239° |
| 2026-05-08 09:41 | 40.47475 | 8.42347 | 7565 ft | 245 kts | 239° |
| 2026-05-08 09:41 | 40.46633 | 8.40422 | 7157 ft | 242 kts | 239° |
| 2026-05-08 09:41 | 40.45796 | 8.38515 | 6731 ft | 241 kts | 239° |
| 2026-05-08 09:41 | 40.44961 | 8.36614 | 6302 ft | 239 kts | 238° |
| 2026-05-08 09:42 | 40.44130 | 8.34729 | 5863 ft | 237 kts | 238° |
| 2026-05-08 09:42 | 40.43309 | 8.32866 | 5420 ft | 235 kts | 238° |
| 2026-05-08 09:42 | 40.42494 | 8.31014 | 5106 ft | 233 kts | 238° |
| 2026-05-08 09:42 | 40.41811 | 8.29106 | 4825 ft | 231 kts | 254° |
| 2026-05-08 09:43 | 40.41665 | 8.27020 | 4519 ft | 230 kts | 276° |
| 2026-05-08 09:43 | 40.42091 | 8.25015 | 4213 ft | 229 kts | 295° |
| 2026-05-08 09:43 | 40.42769 | 8.23117 | 3888 ft | 229 kts | 294° |
| 2026-05-08 09:43 | 40.43438 | 8.21221 | 3586 ft | 228 kts | 296° |
| 2026-05-08 09:44 | 40.44436 | 8.19656 | 3286 ft | 225 kts | 328° |
| 2026-05-08 09:44 | 40.45906 | 8.19055 | 2987 ft | 222 kts | 2° |
| 2026-05-08 09:44 | 40.47377 | 8.19552 | 2665 ft | 220 kts | 26° |
| 2026-05-08 09:44 | 40.48742 | 8.20380 | 2511 ft | 210 kts | 25° |
| 2026-05-08 09:45 | 40.50050 | 8.21167 | 2498 ft | 205 kts | 25° |
| 2026-05-08 09:45 | 40.51334 | 8.21936 | 2501 ft | 202 kts | 25° |
| 2026-05-08 09:45 | 40.52596 | 8.22691 | 2244 ft | 194 kts | 25° |
| 2026-05-08 09:45 | 40.53799 | 8.23410 | 1947 ft | 186 kts | 25° |
| 2026-05-08 09:46 | 40.54948 | 8.24099 | 1689 ft | 177 kts | 25° |
| 2026-05-08 09:46 | 40.56020 | 8.24744 | 1439 ft | 163 kts | 25° |
| 2026-05-08 09:46 | 40.56999 | 8.25334 | 1260 ft | 148 kts | 25° |
| 2026-05-08 09:46 | 40.57908 | 8.25876 | 1027 ft | 140 kts | 25° |
| 2026-05-08 09:47 | 40.58785 | 8.26391 | 831 ft | 138 kts | 25° |
| 2026-05-08 09:47 | 40.59632 | 8.26911 | 655 ft | 135 kts | 27° |
| 2026-05-08 09:47 | 40.60487 | 8.27445 | 473 ft | 134 kts | 26° |
| 2026-05-08 09:47 | 40.61330 | 8.27935 | 293 ft | 133 kts | 25° |
| 2026-05-08 09:48 | 40.62171 | 8.28450 | 99 ft | 132 kts | 26° |
| 2026-05-08 09:48 | 40.62889 | 8.28884 | 93 ft | 91 kts | 25° |
| 2026-05-08 09:48 | 40.63336 | 8.29151 | 99 ft | 52 kts | 24° |
| 2026-05-08 09:48 | 40.63605 | 8.29312 | 99 ft | 36 kts | 24° |
| 2026-05-08 09:49 | 40.63747 | 8.29432 | 97 ft | 14 kts | 51° |
| 2026-05-08 09:49 | 40.63802 | 8.29533 | 100 ft | 13 kts | 55° |
| 2026-05-08 09:49 | 40.63801 | 8.29632 | 101 ft | 12 kts | 141° |
| 2026-05-08 09:49 | 40.63709 | 8.29623 | 102 ft | 16 kts | 203° |
| 2026-05-08 09:50 | 40.63592 | 8.29555 | 97 ft | 20 kts | 204° |
| 2026-05-08 09:50 | 40.63455 | 8.29471 | 95 ft | 23 kts | 205° |
| 2026-05-08 09:50 | 40.63342 | 8.29463 | 93 ft | 16 kts | 168° |
| 2026-05-08 09:50 | 40.63246 | 8.29483 | 92 ft | 8 kts | 192° |
| 2026-05-08 09:51 | 40.63189 | 8.29457 | 92 ft | 6 kts | 174° |
| 2026-05-08 09:51 | 40.63171 | 8.29499 | 90 ft | 3 kts | 115° |
| 2026-05-08 09:51 | 40.63169 | 8.29504 | 92 ft | 0 kts | 115° |